Time;durP1;ratioP1;P1;durP2;ratioP2;P2;SDS_P1;SDS_P2;PMS_P1;PMS_P2;Temp;Humidity;BMP_temperature;BMP_pressure;BME280_temperature;BME280_humidity;BME280_pressure;Samples;Min_cycle;Max_cycle;Signal;HPM_P1;HPM_P2
2022/08/26 00:07:39;;;;;;;;;;;;;;;;;;;;;
2022/08/26 00:17:47;;;;;;;;;;;;;;;;;;;;;
2022/08/26 00:20:58;;;;;;;;;;;;;;;;;;;;;
2022/08/26 00:24:12;;;;;;;12.52;7.75;;;23.50;91.70;;;;;;6276117;22;20046;-91
2022/08/26 00:27:12;;;;;;;;;;;;;;;;;;;;;
2022/08/26 00:30:22;;;;;;;;;;;;;;;;;;;;;
2022/08/26 00:33:26;;;;;;;;;;;;;;;;;;;;;
2022/08/26 00:36:38;;;;;;;11.45;8.00;;;23.50;91.80;;;;;;6279579;22;20043;-92
2022/08/26 00:45:45;;;;;;;8.40;5.82;;;23.30;92.00;;;;;;6169344;23;20470;-91
2022/08/26 00:48:26;;;;;;;10.73;6.70;;;23.30;92.10;;;;;;6165601;23;20017;-91
2022/08/26 00:57:55;;;;;;;;;;;;;;;;;;;;;
2022/08/26 01:04:13;;;;;;;10.10;5.57;;;23.30;92.10;;;;;;6232829;22;20079;-92
2022/08/26 01:10:59;;;;;;;;;;;;;;;;;;;;;
2022/08/26 01:15:02;;;;;;;;;;;;;;;;;;;;;
2022/08/26 01:38:09;;;;;;;;;;;;;;;;;;;;;
2022/08/26 01:41:33;;;;;;;;;;;;;;;;;;;;;
2022/08/26 01:44:53;;;;;;;;;;;;;;;;;;;;;
2022/08/26 01:47:52;;;;;;;5.85;3.65;;;23.60;91.70;;;;;;6018396;23;20042;-92
2022/08/26 01:51:02;;;;;;;;;;;;;;;;;;;;;
2022/08/26 02:01:14;;;;;;;6.13;3.17;;;23.20;92.10;;;;;;6039425;23;20034;-92
2022/08/26 02:04:53;;;;;;;;;;;;;;;;;;;;;
2022/08/26 02:11:27;;;;;;;;;;;;;;;;;;;;;
2022/08/26 02:14:39;;;;;;;;;;;;;;;;;;;;;
2022/08/26 02:17:46;;;;;;;;;;;;;;;;;;;;;
2022/08/26 02:20:51;;;;;;;;;;;;;;;;;;;;;
2022/08/26 02:24:06;;;;;;;5.53;2.47;;;23.10;92.40;;;;;;6301470;22;20039;-94
2022/08/26 02:27:16;;;;;;;;;;;;;;;;;;;;;
2022/08/26 02:30:31;;;;;;;;;;;;;;;;;;;;;
2022/08/26 02:33:40;;;;;;;5.88;3.15;;;23.10;92.50;;;;;;6285735;22;20035;-92
2022/08/26 02:37:02;;;;;;;;;;;;;;;;;;;;;
2022/08/26 02:40:03;;;;;;;;;;;;;;;;;;;;;
2022/08/26 02:43:26;;;;;;;;;;;;;;;;;;;;;
2022/08/26 02:53:18;;;;;;;;;;;;;;;;;;;;;
2022/08/26 02:59:38;;;;;;;;;;;;;;;;;;;;;
2022/08/26 03:03:02;;;;;;;;;;;;;;;;;;;;;
2022/08/26 03:09:34;;;;;;;;;;;;;;;;;;;;;
2022/08/26 03:12:24;;;;;;;;;;;;;;;;;;;;;
2022/08/26 03:15:15;;;;;;;;;;;;;;;;;;;;;
2022/08/26 03:17:59;;;;;;;;;;;;;;;;;;;;;
2022/08/26 03:21:17;;;;;;;;;;;;;;;;;;;;;
2022/08/26 03:31:17;;;;;;;5.70;1.70;;;23.10;92.40;;;;;;6043623;23;20082;-92
2022/08/26 03:33:58;;;;;;;6.97;1.80;;;23.00;92.50;;;;;;6100453;23;20006;-90
2022/08/26 03:36:54;;;;;;;;;;;;;;;;;;;;;
2022/08/26 03:40:04;;;;;;;5.40;2.10;;;23.20;92.40;;;;;;6080421;23;19928;-91
2022/08/26 03:43:20;;;;;;;;;;;;;;;;;;;;;
2022/08/26 03:46:58;;;;;;;;;;;;;;;;;;;;;
2022/08/26 03:50:06;;;;;;;;;;;;;;;;;;;;;
2022/08/26 03:53:46;;;;;;;;;;;;;;;;;;;;;
2022/08/26 03:57:15;;;;;;;;;;;;;;;;;;;;;
2022/08/26 04:00:31;;;;;;;;;;;;;;;;;;;;;
2022/08/26 04:07:13;;;;;;;;;;;;;;;;;;;;;
2022/08/26 04:10:46;;;;;;;;;;;;;;;;;;;;;
2022/08/26 04:16:39;;;;;;;;;;;;;;;;;;;;;
2022/08/26 04:23:07;;;;;;;3.75;1.65;;;23.00;92.60;;;;;;6161133;23;20340;-91
2022/08/26 04:29:13;;;;;;;;;;;;;;;;;;;;;
2022/08/26 04:32:29;;;;;;;;;;;;;;;;;;;;;
2022/08/26 04:35:58;;;;;;;;;;;;;;;;;;;;;
2022/08/26 04:42:19;;;;;;;;;;;;;;;;;;;;;
2022/08/26 04:52:19;;;;;;;;;;;;;;;;;;;;;
2022/08/26 04:55:25;;;;;;;;;;;;;;;;;;;;;
2022/08/26 05:01:26;;;;;;;5.15;1.65;;;23.00;92.50;;;;;;6034192;22;20017;-88
2022/08/26 05:03:51;;;;;;;4.75;1.30;;;23.10;92.50;;;;;;6250440;23;20024;-86
2022/08/26 05:06:19;;;;;;;6.78;1.55;;;23.00;92.50;;;;;;6225454;23;20000;-90
2022/08/26 05:08:45;;;;;;;7.82;1.75;;;23.20;92.40;;;;;;6251898;23;20038;-88
2022/08/26 05:11:12;;;;;;;4.15;1.30;;;23.20;92.30;;;;;;6251569;23;19996;-87
2022/08/26 05:13:43;;;;;;;4.93;1.55;;;23.20;92.30;;;;;;6250749;23;19997;-87
2022/08/26 05:16:13;;;;;;;4.07;1.20;;;23.30;92.20;;;;;;6250435;23;20004;-87
2022/08/26 05:18:43;;;;;;;3.40;1.40;;;23.20;92.10;;;;;;6250734;23;20003;-87
2022/08/26 05:21:29;;;;;;;3.83;1.50;;;23.30;92.20;;;;;;6243211;23;20010;-87
2022/08/26 05:23:56;;;;;;;4.35;1.70;;;23.20;92.10;;;;;;6275597;22;20078;-87
2022/08/26 05:26:27;;;;;;;4.38;1.70;;;23.20;92.20;;;;;;6249631;23;20008;-86
2022/08/26 05:28:55;;;;;;;2.92;1.30;;;23.10;92.30;;;;;;6225568;23;20005;-87
2022/08/26 05:31:35;;;;;;;4.45;1.70;;;23.10;92.30;;;;;;6250783;23;20031;-87
2022/08/26 05:34:06;;;;;;;4.82;1.30;;;23.20;92.30;;;;;;6252221;22;20001;-87
2022/08/26 05:36:40;;;;;;;5.47;1.83;;;23.20;92.20;;;;;;6230217;22;20315;-88
2022/08/26 05:39:06;;;;;;;3.05;1.20;;;23.20;92.30;;;;;;6255711;22;20329;-85
2022/08/26 05:41:37;;;;;;;6.03;1.55;;;23.20;92.30;;;;;;6230256;22;20053;-88
2022/08/26 05:44:07;;;;;;;5.82;1.50;;;23.20;92.20;;;;;;6255124;22;20003;-88
2022/08/26 05:46:35;;;;;;;5.00;1.50;;;23.20;92.20;;;;;;6256482;22;20050;-86
2022/08/26 05:49:01;;;;;;;3.28;1.45;;;23.20;92.20;;;;;;6255320;22;20020;-88
2022/08/26 05:51:27;;;;;;;3.53;1.40;;;23.20;92.20;;;;;;6255056;22;20003;-88
2022/08/26 05:53:54;;;;;;;4.82;1.30;;;23.20;92.30;;;;;;6255253;22;20082;-87
2022/08/26 05:56:23;;;;;;;5.40;1.33;;;23.20;92.20;;;;;;6254432;22;20023;-86
2022/08/26 05:58:57;;;;;;;9.73;2.15;;;23.30;92.20;;;;;;6256592;22;20004;-85
2022/08/26 06:01:26;;;;;;;5.53;1.60;;;23.30;92.20;;;;;;6233124;22;20027;-85
2022/08/26 06:04:18;;;;;;;;;;;;;;;;;;;;;
2022/08/26 06:07:23;;;;;;;;;;;;;;;;;;;;;
2022/08/26 06:10:13;;;;;;;3.22;1.25;;;23.20;92.20;;;;;;6165466;23;20036;-91
2022/08/26 06:13:04;;;;;;;3.08;1.00;;;23.20;92.20;;;;;;6144090;23;20009;-91
2022/08/26 06:16:23;;;;;;;3.10;1.10;;;23.20;92.20;;;;;;6279375;22;20003;-90
2022/08/26 06:19:20;;;;;;;5.10;1.30;;;23.20;92.20;;;;;;6288822;22;20011;-91
2022/08/26 06:25:36;;;;;;;;;;;;;;;;;;;;;
2022/08/26 06:27:58;;;;;;;2.85;1.33;;;23.20;92.20;;;;;;6166176;23;20017;-90
2022/08/26 06:31:01;;;;;;;6.50;1.52;;;23.20;92.20;;;;;;6216623;22;20050;-89
2022/08/26 06:33:46;;;;;;;5.60;1.20;;;23.20;92.20;;;;;;6242758;22;20000;-89
2022/08/26 06:36:52;;;;;;;;;;;;;;;;;;;;;
2022/08/26 06:48:38;;;;;;;4.35;1.70;;;23.30;92.00;;;;;;6302068;22;20059;-89
2022/08/26 06:51:11;;;;;;;5.88;1.48;;;23.30;91.80;;;;;;6304658;22;19992;-90
2022/08/26 06:54:06;;;;;;;;;;;;;;;;;;;;;
2022/08/26 06:56:40;;;;;;;3.80;0.85;;;23.30;91.80;;;;;;6285979;22;20015;-87
2022/08/26 06:59:12;;;;;;;4.00;1.30;;;23.40;91.70;;;;;;6283604;22;20035;-87
2022/08/26 07:02:01;;;;;;;3.78;1.42;;;23.50;91.70;;;;;;6285714;22;19995;-87
2022/08/26 07:04:27;;;;;;;5.70;1.67;;;23.50;91.60;;;;;;6284160;22;20003;-88
2022/08/26 07:07:12;;;;;;;4.63;1.60;;;23.40;91.50;;;;;;6284219;22;20095;-88
2022/08/26 07:10:03;;;;;;;2.65;1.20;;;23.40;91.50;;;;;;6284569;22;20010;-89
2022/08/26 07:15:58;;;;;;;;;;;;;;;;;;;;;
2022/08/26 07:18:36;;;;;;;4.53;1.55;;;23.60;91.30;;;;;;6236877;22;20011;-88
2022/08/26 07:21:08;;;;;;;7.03;1.65;;;23.70;91.10;;;;;;6283802;22;20007;-89
2022/08/26 07:23:37;;;;;;;6.90;1.50;;;23.60;90.90;;;;;;6284810;22;19999;-88
2022/08/26 07:26:15;;;;;;;4.25;1.30;;;23.50;91.10;;;;;;6284810;22;20087;-89
2022/08/26 07:28:44;;;;;;;4.95;1.50;;;23.50;91.10;;;;;;6258350;22;20003;-88
2022/08/26 07:31:12;;;;;;;5.13;1.50;;;23.50;91.20;;;;;;6284217;22;20015;-89
2022/08/26 07:33:41;;;;;;;5.07;1.67;;;23.50;91.10;;;;;;6283283;22;20324;-89
2022/08/26 07:36:12;;;;;;;4.40;1.23;;;23.50;91.10;;;;;;6283077;22;20396;-86
2022/08/26 07:38:40;;;;;;;4.82;1.35;;;23.50;91.00;;;;;;6283839;22;20007;-89
2022/08/26 07:41:09;;;;;;;4.72;1.40;;;23.50;91.00;;;;;;6284207;22;20066;-88
2022/08/26 07:43:42;;;;;;;5.28;1.42;;;23.50;91.00;;;;;;6285053;22;20000;-87
2022/08/26 07:46:17;;;;;;;3.55;0.95;;;23.60;90.90;;;;;;6260469;22;20004;-89
2022/08/26 07:49:11;;;;;;;4.07;1.40;;;23.60;90.90;;;;;;6286247;22;20476;-89
2022/08/26 07:55:11;;;;;;;5.65;1.23;;;23.60;90.80;;;;;;6286199;22;20046;-90
2022/08/26 07:57:39;;;;;;;3.97;1.30;;;23.50;90.80;;;;;;6286483;22;20035;-89
2022/08/26 08:00:14;;;;;;;3.17;1.13;;;23.60;90.80;;;;;;6259053;22;20008;-90
2022/08/26 08:02:44;;;;;;;2.97;1.08;;;23.70;90.60;;;;;;6283279;22;20034;-88
2022/08/26 08:05:39;;;;;;;3.83;1.08;;;23.70;90.50;;;;;;6284915;22;20010;-90
2022/08/26 08:08:18;;;;;;;;;;;;;;;;;;;;;
2022/08/26 08:24:11;;;;;;;4.55;1.40;;;23.80;90.60;;;;;;6224129;23;20044;-90
2022/08/26 08:26:50;;;;;;;2.83;0.98;;;23.80;90.60;;;;;;6174800;23;20009;-89
2022/08/26 08:35:35;;;;;;;;;;;;;;;;;;;;;
2022/08/26 08:42:03;;;;;;;4.10;1.60;;;23.90;90.70;;;;;;6286930;22;20026;-90
2022/08/26 08:44:30;;;;;;;5.18;1.50;;;23.90;90.70;;;;;;6288604;22;20079;-89
2022/08/26 08:47:25;;;;;;;4.20;1.50;;;23.90;90.70;;;;;;6261509;22;20038;-87
2022/08/26 08:49:54;;;;;;;3.08;1.05;;;23.80;90.70;;;;;;6293774;22;20048;-87
2022/08/26 08:52:42;;;;;;;;;;;;;;;;;;;;;
2022/08/26 08:55:16;;;;;;;4.55;1.00;;;23.80;90.90;;;;;;6305227;22;20000;-86
2022/08/26 08:58:22;;;;;;;;;;;;;;;;;;;;;
2022/08/26 09:01:01;;;;;;;3.33;1.20;;;23.90;90.90;;;;;;6304729;22;19984;-88
2022/08/26 09:04:21;;;;;;;;;;;;;;;;;;;;;
2022/08/26 09:06:37;;;;;;;7.10;1.52;;;24.10;90.70;;;;;;6284810;22;20015;-89
2022/08/26 09:09:22;;;;;;;4.60;1.23;;;24.00;90.60;;;;;;6286464;22;19996;-93
2022/08/26 09:11:49;;;;;;;6.40;0.95;;;23.90;90.70;;;;;;6285679;22;20014;-86
2022/08/26 09:14:16;;;;;;;3.72;0.80;;;24.00;90.70;;;;;;6286548;22;20011;-88
2022/08/26 09:16:56;;;;;;;6.10;1.50;;;24.00;90.70;;;;;;6286173;22;20023;-87
2022/08/26 09:19:48;;;;;;;7.00;1.40;;;24.00;90.60;;;;;;6260643;22;20031;-88
2022/08/26 09:22:32;;;;;;;3.78;1.13;;;23.90;90.70;;;;;;6286819;22;20000;-89
2022/08/26 09:25:00;;;;;;;4.43;1.17;;;23.90;90.80;;;;;;6285821;22;20000;-87
2022/08/26 09:27:51;;;;;;;4.60;1.27;;;24.00;90.70;;;;;;6286865;22;20010;-88
2022/08/26 09:30:36;;;;;;;4.32;1.30;;;24.00;90.70;;;;;;6286047;22;20000;-87
2022/08/26 09:33:05;;;;;;;5.72;1.35;;;23.90;90.80;;;;;;6285580;22;20393;-89
2022/08/26 09:35:53;;;;;;;;;;;;;;;;;;;;;
2022/08/26 09:39:12;;;;;;;4.32;1.50;;;23.90;90.90;;;;;;6291280;22;20030;-90
2022/08/26 09:41:43;;;;;;;3.35;1.40;;;23.90;90.90;;;;;;6287264;22;20083;-90
2022/08/26 09:44:34;;;;;;;;;;;;;;;;;;;;;
2022/08/26 09:47:06;;;;;;;5.70;1.60;;;24.10;90.70;;;;;;6288246;22;20027;-90
2022/08/26 09:49:55;;;;;;;4.47;1.60;;;24.20;90.70;;;;;;6286619;22;20019;-89
2022/08/26 09:52:27;;;;;;;3.20;1.20;;;24.10;90.50;;;;;;6287818;22;20000;-92
2022/08/26 09:55:10;;;;;;;7.95;1.58;;;24.10;90.60;;;;;;6261395;22;20004;-89
2022/08/26 09:57:57;;;;;;;5.25;1.50;;;24.10;90.50;;;;;;6286193;22;20016;-89
2022/08/26 10:00:44;;;;;;;3.78;1.35;;;24.10;90.50;;;;;;6288907;22;20030;-89
2022/08/26 10:03:28;;;;;;;5.45;1.35;;;24.00;90.50;;;;;;6286260;22;20012;-89
2022/08/26 10:06:02;;;;;;;2.70;1.05;;;24.10;90.50;;;;;;6287308;22;19996;-90
2022/08/26 10:08:35;;;;;;;2.65;1.08;;;24.10;90.50;;;;;;6287691;22;20027;-91
2022/08/26 10:11:12;;;;;;;4.47;1.20;;;24.10;90.50;;;;;;6286843;22;19996;-89
2022/08/26 10:13:47;;;;;;;2.97;1.10;;;24.20;90.40;;;;;;6286027;22;20079;-90
2022/08/26 10:20:14;;;;;;;5.22;1.50;;;24.10;90.20;;;;;;6237876;22;20062;-94
2022/08/26 10:29:33;;;;;;;4.40;1.42;;;23.90;90.20;;;;;;6226448;23;20035;-91
2022/08/26 10:35:31;;;;;;;;;;;;;;;;;;;;;
2022/08/26 10:41:56;;;;;;;;;;;;;;;;;;;;;
2022/08/26 10:44:40;;;;;;;3.13;1.10;;;23.50;90.20;;;;;;6288612;22;20019;-91
2022/08/26 11:07:51;;;;;;;3.33;1.50;;;23.80;89.40;;;;;;6305919;22;20079;-88
2022/08/26 11:17:07;;;;;;;3.78;1.45;;;23.80;90.00;;;;;;6286648;22;20094;-90
2022/08/26 11:19:41;;;;;;;3.67;1.30;;;24.00;90.10;;;;;;6236765;22;20008;-89
2022/08/26 11:22:49;;;;;;;;;;;;;;;;;;;;;
2022/08/26 11:25:28;;;;;;;2.65;1.02;;;24.10;90.20;;;;;;6166899;22;20017;-89
2022/08/26 11:28:44;;;;;;;2.08;1.15;;;24.00;90.10;;;;;;6268043;22;20054;-87
2022/08/26 11:34:54;;;;;;;3.33;0.98;;;23.80;90.00;;;;;;6192565;23;20005;-91
2022/08/26 11:37:32;;;;;;;3.25;1.20;;;23.70;89.90;;;;;;6192953;23;20101;-89
2022/08/26 11:43:42;;;;;;;2.65;0.80;;;23.50;89.70;;;;;;6172896;22;20126;-89
2022/08/26 11:46:38;;;;;;;2.70;0.75;;;23.60;89.80;;;;;;6284420;22;20028;-89
2022/08/26 11:49:11;;;;;;;3.22;0.88;;;23.50;89.60;;;;;;6258364;22;20034;-89
2022/08/26 11:55:16;;;;;;;5.57;1.35;;;23.50;89.50;;;;;;6241096;22;20079;-91
2022/08/26 11:58:13;;;;;;;2.25;1.00;;;23.40;89.50;;;;;;6284314;22;20007;-89
2022/08/26 12:01:01;;;;;;;2.92;1.15;;;23.40;89.70;;;;;;6299391;22;20008;-90
2022/08/26 12:03:50;;;;;;;3.17;0.93;;;23.40;89.50;;;;;;6285058;22;20007;-89
2022/08/26 12:09:40;;;;;;;3.97;1.15;;;23.30;89.70;;;;;;6286077;22;20373;-89
2022/08/26 12:12:53;;;;;;;4.70;0.77;;;23.30;89.70;;;;;;6285436;22;20003;-89
2022/08/26 14:15:14;;;;;;;2.75;0.70;;;23.60;86.70;;;;;;6294827;22;20026;-90
2022/08/26 14:18:12;;;;;;;0.82;0.50;;;23.50;86.70;;;;;;6182416;22;20101;-91
2022/08/26 14:27:39;;;;;;;2.58;0.77;;;23.60;86.80;;;;;;6240439;22;20000;-92
2022/08/26 14:30:31;;;;;;;1.85;0.73;;;23.50;86.60;;;;;;6289941;22;19996;-92
2022/08/26 14:33:24;;;;;;;2.10;0.68;;;23.40;86.70;;;;;;6266737;22;20406;-92
2022/08/26 14:40:13;;;;;;;2.25;0.68;;;23.30;87.00;;;;;;6234113;23;20035;-93
2022/08/26 14:50:09;;;;;;;3.30;0.60;;;23.40;86.50;;;;;;6199118;23;20102;-93
2022/08/26 15:09:59;;;;;;;3.10;0.60;;;23.60;85.50;;;;;;6280507;22;20008;-90
2022/08/26 15:22:52;;;;;;;1.38;0.40;;;23.30;85.30;;;;;;6187796;23;20047;-89
2022/08/26 15:25:33;;;;;;;;;;;;;;;;;;;;;
2022/08/26 15:28:09;;;;;;;3.28;1.00;;;23.40;85.50;;;;;;6213223;23;19994;-88
2022/08/26 15:30:59;;;;;;;3.22;0.55;;;23.40;85.60;;;;;;6188336;23;20081;-90
2022/08/26 15:33:32;;;;;;;4.63;0.80;;;23.40;85.80;;;;;;6187534;23;20001;-88
2022/08/26 15:36:02;;;;;;;2.22;0.60;;;23.40;86.00;;;;;;6180271;23;20024;-89
2022/08/26 15:38:32;;;;;;;3.80;0.90;;;23.40;86.20;;;;;;6166754;23;20091;-89
2022/08/26 15:41:02;;;;;;;3.15;0.70;;;23.40;86.60;;;;;;6166000;23;20534;-88
2022/08/26 15:43:57;;;;;;;;;;;23.40;86.80;;;;;;6196960;23;20011;-92
2022/08/26 15:46:43;;;;;;;2.42;0.90;;;23.40;86.70;;;;;;6222270;23;19924;-91
2022/08/26 15:49:33;;;;;;;3.60;1.10;;;23.30;86.90;;;;;;6204373;23;20011;-87
2022/08/26 15:52:00;;;;;;;1.67;0.85;;;23.30;87.00;;;;;;6224826;23;20012;-82
2022/08/26 15:54:25;;;;;;;2.40;0.65;;;23.30;86.90;;;;;;6198575;23;20004;-84
2022/08/26 15:56:58;;;;;;;;;;;23.30;86.80;;;;;;6251293;23;20039;-83
2022/08/26 15:59:24;;;;;;;3.15;0.73;;;23.40;85.90;;;;;;6224303;23;19903;-86
2022/08/26 16:01:50;;;;;;;4.85;1.13;;;23.20;85.20;;;;;;6198371;23;20462;-83
2022/08/26 16:04:18;;;;;;;1.67;0.88;;;23.20;85.00;;;;;;6168693;23;20028;-85
2022/08/26 16:06:48;;;;;;;2.58;0.80;;;23.20;85.00;;;;;;6169181;23;20020;-83
2022/08/26 16:09:14;;;;;;;2.03;0.73;;;23.20;85.10;;;;;;6219368;23;20001;-84
2022/08/26 16:11:41;;;;;;;0.95;0.50;;;23.30;85.00;;;;;;6217840;23;20036;-83
2022/08/26 16:14:07;;;;;;;2.45;0.93;;;23.30;84.80;;;;;;6195093;23;20020;-84
2022/08/26 16:16:38;;;;;;;2.08;0.68;;;23.30;84.70;;;;;;6195042;23;20012;-84
2022/08/26 16:19:04;;;;;;;0.80;0.60;;;23.20;84.60;;;;;;6220594;23;20091;-84
2022/08/26 16:21:30;;;;;;;3.00;0.90;;;23.20;85.20;;;;;;6235933;23;20066;-83
2022/08/26 16:23:56;;;;;;;1.85;0.70;;;23.20;84.60;;;;;;6252559;22;20016;-84
2022/08/26 16:26:26;;;;;;;1.77;0.80;;;23.30;84.60;;;;;;6251905;23;20019;-84
2022/08/26 16:28:54;;;;;;;1.50;0.50;;;23.20;84.50;;;;;;6277564;22;20027;-82
2022/08/26 16:31:21;;;;;;;3.25;1.10;;;23.30;84.40;;;;;;6253889;23;20310;-83
2022/08/26 16:33:47;;;;;;;2.78;0.82;;;23.20;84.20;;;;;;6250322;23;20008;-83
2022/08/26 16:36:13;;;;;;;3.70;0.93;;;23.20;84.20;;;;;;6227196;23;20031;-83
2022/08/26 16:38:40;;;;;;;3.95;1.00;;;23.10;84.20;;;;;;6252319;22;20016;-82
2022/08/26 16:41:07;;;;;;;3.55;0.80;;;23.10;84.30;;;;;;6276730;22;20377;-84
2022/08/26 16:43:33;;;;;;;3.35;1.13;;;23.20;84.10;;;;;;6276674;22;20459;-83
2022/08/26 16:46:00;;;;;;;3.25;0.90;;;23.10;83.80;;;;;;6251425;23;20087;-84
2022/08/26 16:48:26;;;;;;;1.17;0.50;;;23.10;83.90;;;;;;6253905;22;20035;-84
2022/08/26 16:50:54;;;;;;;3.03;1.05;;;23.20;83.90;;;;;;6278340;22;20000;-84
2022/08/26 16:54:00;;;;;;;;;;;;;;;;;;;;;
2022/08/26 16:56:36;;;;;;;2.97;0.80;;;23.20;83.70;;;;;;6256066;23;20050;-89
2022/08/26 16:59:20;;;;;;;;;;;;;;;;;;;;;
2022/08/26 17:01:46;;;;;;;2.38;1.00;;;23.10;83.80;;;;;;6256274;23;20023;-88
2022/08/26 17:04:30;;;;;;;4.68;0.98;;;23.10;83.80;;;;;;6278507;22;20000;-88
2022/08/26 17:07:02;;;;;;;3.78;0.80;;;23.00;83.70;;;;;;6254963;22;20024;-88
2022/08/26 17:09:31;;;;;;;2.67;1.08;;;23.00;83.70;;;;;;6253959;23;20004;-87
2022/08/26 17:12:17;;;;;;;;;;;;;;;;;;;;;
2022/08/26 17:14:50;;;;;;;3.47;0.93;;;23.00;83.80;;;;;;6255129;23;20035;-88
2022/08/26 17:17:24;;;;;;;4.03;0.88;;;23.00;83.90;;;;;;6255476;22;20095;-90
2022/08/26 17:20:07;;;;;;;;;;;;;;;;;;;;;
2022/08/26 17:25:40;;;;;;;2.35;0.88;;;22.90;84.30;;;;;;6256470;23;20092;-90
2022/08/26 17:28:10;;;;;;;2.10;0.80;;;22.90;84.30;;;;;;6261318;23;20016;-87
2022/08/26 17:30:47;;;;;;;2.58;0.70;;;22.80;84.40;;;;;;6290701;22;20044;-90
2022/08/26 17:33:33;;;;;;;4.03;0.98;;;22.80;84.30;;;;;;6274826;22;20015;-90
2022/08/26 17:36:31;;;;;;;;;;;;;;;;;;;;;
2022/08/26 17:39:11;;;;;;;;;;;;;;;;;;;;;
2022/08/26 17:41:50;;;;;;;1.90;0.70;;;22.80;84.40;;;;;;6252271;22;20011;-90
2022/08/26 17:44:49;;;;;;;2.00;0.68;;;22.70;84.50;;;;;;6267429;23;20004;-89
2022/08/26 17:47:22;;;;;;;2.03;0.90;;;22.70;84.60;;;;;;6235313;23;20012;-88
2022/08/26 17:50:06;;;;;;;;;;;;;;;;;;;;;
2022/08/26 17:52:43;;;;;;;3.92;1.25;;;22.60;84.80;;;;;;6255078;23;20020;-89
2022/08/26 17:55:23;;;;;;;2.70;0.82;;;22.50;84.90;;;;;;6257150;22;19988;-89
2022/08/26 17:58:02;;;;;;;;;;;;;;;;;;;;;
2022/08/26 18:01:01;;;;;;;2.10;0.77;;;22.40;85.30;;;;;;6257032;23;20024;-91
2022/08/26 18:03:35;;;;;;;3.72;0.95;;;22.30;85.40;;;;;;6282895;22;20092;-89
2022/08/26 18:06:22;;;;;;;3.55;1.08;;;22.30;85.50;;;;;;6281564;22;20011;-89
2022/08/26 18:08:52;;;;;;;3.90;1.10;;;22.30;85.60;;;;;;6255131;22;20004;-90
2022/08/26 18:11:38;;;;;;;;;;;;;;;;;;;;;
2022/08/26 18:14:28;;;;;;;2.90;1.25;;;22.40;85.50;;;;;;6255827;23;20020;-90
2022/08/26 18:16:59;;;;;;;2.72;0.90;;;22.30;85.40;;;;;;6278400;22;20023;-90
2022/08/26 18:19:28;;;;;;;3.13;1.10;;;22.20;85.60;;;;;;6253220;23;20057;-88
2022/08/26 18:22:07;;;;;;;2.67;1.10;;;22.30;85.80;;;;;;6251615;23;20016;-87
2022/08/26 18:24:51;;;;;;;2.08;0.90;;;22.20;85.70;;;;;;6253453;23;20000;-90
2022/08/26 18:27:40;;;;;;;;;;;;;;;;;;;;;
2022/08/26 18:30:26;;;;;;;;;;;;;;;;;;;;;
2022/08/26 18:32:59;;;;;;;3.20;1.23;;;22.20;85.80;;;;;;6255045;23;20027;-89
2022/08/26 18:35:32;;;;;;;5.13;1.50;;;22.10;85.80;;;;;;6253924;22;20028;-88
2022/08/26 18:38:16;;;;;;;;;;;;;;;;;;;;;
2022/08/26 18:40:52;;;;;;;4.38;1.38;;;22.10;85.90;;;;;;6254099;23;20036;-90
2022/08/26 18:43:38;;;;;;;3.97;1.15;;;22.00;86.10;;;;;;6278768;22;20028;-90
2022/08/26 18:46:29;;;;;;;3.60;1.02;;;21.90;86.20;;;;;;6253495;23;20068;-88
2022/08/26 18:49:03;;;;;;;3.15;0.98;;;21.90;86.20;;;;;;6219421;22;20004;-88
2022/08/26 18:54:41;;;;;;;;;;;;;;;;;;;;;
2022/08/26 18:57:12;;;;;;;4.18;1.20;;;22.00;86.00;;;;;;6252379;23;20065;-87
2022/08/26 18:59:37;;;;;;;;;;;22.00;85.90;;;;;;6252147;23;20004;-88
2022/08/26 19:02:03;;;;;;;2.40;1.05;;;22.10;85.80;;;;;;6252300;23;20360;-87
2022/08/26 19:04:29;;;;;;;4.78;1.35;;;22.00;85.70;;;;;;6277861;22;20326;-87
2022/08/26 19:06:59;;;;;;;5.15;1.25;;;22.00;85.40;;;;;;6251758;22;20008;-88
2022/08/26 19:09:26;;;;;;;3.45;0.85;;;21.90;85.50;;;;;;6278568;22;20000;-88
2022/08/26 19:12:15;;;;;;;5.32;1.17;;;21.90;85.70;;;;;;6251676;22;20384;-87
2022/08/26 19:14:42;;;;;;;2.75;1.10;;;21.90;85.60;;;;;;6230418;23;20008;-88
2022/08/26 19:17:10;;;;;;;1.35;0.80;;;22.00;85.60;;;;;;6226527;23;20547;-88
2022/08/26 19:19:39;;;;;;;2.55;0.90;;;22.00;85.60;;;;;;6276635;22;20020;-88
2022/08/26 19:22:08;;;;;;;2.45;1.20;;;22.00;85.30;;;;;;6251590;22;20016;-87
2022/08/26 19:24:34;;;;;;;5.10;1.35;;;21.90;85.00;;;;;;6251603;23;20000;-86
2022/08/26 19:27:06;;;;;;;2.97;1.10;;;21.80;85.00;;;;;;6252438;23;20015;-88
2022/08/26 19:29:38;;;;;;;3.42;1.45;;;21.70;85.30;;;;;;6277634;22;20000;-87
2022/08/26 19:32:13;;;;;;;3.83;1.25;;;21.70;85.30;;;;;;6276814;22;20004;-89
2022/08/26 19:34:39;;;;;;;3.08;1.10;;;21.70;85.40;;;;;;6252017;23;20383;-86
2022/08/26 19:37:07;;;;;;;4.18;1.00;;;21.70;85.50;;;;;;6250603;22;20012;-89
2022/08/26 19:39:39;;;;;;;2.15;1.15;;;21.60;85.60;;;;;;6296825;22;19996;-88
2022/08/26 19:42:07;;;;;;;3.05;1.15;;;21.70;85.60;;;;;;6298709;22;19995;-87
2022/08/26 19:47:20;;;;;;;2.90;1.20;;;21.70;85.60;;;;;;6273905;22;19999;-87
2022/08/26 19:49:46;;;;;;;3.40;1.20;;;21.70;85.50;;;;;;6273062;22;20038;-88
2022/08/26 19:52:34;;;;;;;;;;;;;;;;;;;;;
2022/08/26 19:55:02;;;;;;;3.63;1.20;;;21.60;85.30;;;;;;6254480;23;20024;-87
2022/08/26 19:57:33;;;;;;;2.28;0.90;;;21.60;85.30;;;;;;6278232;22;20084;-86
2022/08/26 20:00:03;;;;;;;2.63;1.02;;;21.60;85.20;;;;;;6277749;22;20031;-87
2022/08/26 20:02:32;;;;;;;1.58;0.90;;;21.70;84.90;;;;;;6277377;22;20015;-86
2022/08/26 20:05:04;;;;;;;5.57;1.10;;;21.70;84.60;;;;;;6277054;22;20004;-87
2022/08/26 20:07:30;;;;;;;3.00;1.10;;;21.60;84.40;;;;;;6276566;22;20004;-86
2022/08/26 20:10:06;;;;;;;3.90;1.25;;;21.50;84.40;;;;;;6277175;22;20036;-87
2022/08/26 20:12:34;;;;;;;3.20;1.00;;;21.40;84.50;;;;;;6277713;22;20038;-87
2022/08/26 20:15:03;;;;;;;2.92;1.10;;;21.40;84.50;;;;;;6278043;22;20023;-87
2022/08/26 20:17:44;;;;;;;4.32;1.33;;;21.40;84.40;;;;;;6252713;22;20095;-87
2022/08/26 20:22:58;;;;;;;5.03;1.40;;;21.40;84.30;;;;;;6252649;23;20098;-87
2022/08/26 20:25:28;;;;;;;3.80;1.08;;;21.30;84.40;;;;;;6251370;22;20342;-86
2022/08/26 20:27:54;;;;;;;;;;;21.20;84.30;;;;;;6252769;22;20019;-87
2022/08/26 20:30:21;;;;;;;3.95;1.20;;;21.20;84.30;;;;;;6251566;23;19903;-86
2022/08/26 20:32:48;;;;;;;3.67;1.08;;;21.20;84.50;;;;;;6252188;23;20004;-89
2022/08/26 20:35:14;;;;;;;3.95;0.90;;;21.20;84.10;;;;;;6252479;22;20028;-87
2022/08/26 20:37:43;;;;;;;2.78;1.17;;;21.10;84.30;;;;;;6251329;23;20016;-87
2022/08/26 20:40:18;;;;;;;4.03;1.17;;;21.10;84.30;;;;;;6252138;22;20039;-87
2022/08/26 20:42:47;;;;;;;2.03;0.77;;;21.20;84.30;;;;;;6226255;23;20011;-89
2022/08/26 20:45:20;;;;;;;3.35;1.33;;;21.20;84.20;;;;;;6252933;22;20011;-87
2022/08/26 20:47:51;;;;;;;3.58;1.40;;;21.30;84.10;;;;;;6277808;22;20004;-89
2022/08/26 20:50:20;;;;;;;3.55;1.20;;;21.40;83.80;;;;;;6252993;22;20007;-88
2022/08/26 20:52:58;;;;;;;3.42;1.30;;;21.40;83.70;;;;;;6277103;22;20426;-90
2022/08/26 20:55:50;;;;;;;3.70;1.27;;;21.30;83.70;;;;;;6278182;22;19996;-87
2022/08/26 20:58:18;;;;;;;3.67;1.23;;;21.30;83.70;;;;;;6252769;23;20008;-89
2022/08/26 21:00:47;;;;;;;2.97;1.20;;;21.30;83.60;;;;;;6226592;23;20091;-89
2022/08/26 21:03:18;;;;;;;1.90;1.20;;;21.20;83.60;;;;;;6276968;22;20007;-87
2022/08/26 21:05:49;;;;;;;4.53;1.40;;;21.10;83.70;;;;;;6252746;22;20011;-88
2022/08/26 21:08:25;;;;;;;4.13;1.60;;;21.10;83.80;;;;;;6254496;22;20004;-87
2022/08/26 21:11:02;;;;;;;1.83;1.38;;;21.10;83.60;;;;;;6256094;22;19996;-87
2022/08/26 21:13:34;;;;;;;2.78;1.27;;;21.10;83.60;;;;;;6254737;22;20004;-89
2022/08/26 21:16:10;;;;;;;;;;;;;;;;;;;;;
2022/08/26 21:18:56;;;;;;;3.17;1.45;;;21.20;83.30;;;;;;6255881;23;20083;-87
2022/08/26 21:21:44;;;;;;;;;;;;;;;;;;;;;
2022/08/26 21:24:22;;;;;;;1.85;1.17;;;21.10;82.80;;;;;;6253922;23;20078;-86
2022/08/26 21:26:51;;;;;;;4.20;1.40;;;21.10;82.70;;;;;;6279712;22;20028;-88
2022/08/26 21:29:22;;;;;;;3.50;1.50;;;21.10;82.70;;;;;;6255510;22;20000;-88
2022/08/26 21:31:57;;;;;;;4.03;1.60;;;21.00;82.40;;;;;;6228979;23;20027;-90
2022/08/26 21:34:25;;;;;;;5.82;1.73;;;21.00;82.40;;;;;;6256460;22;20072;-87
2022/08/26 21:36:51;;;;;;;3.20;1.30;;;21.00;82.00;;;;;;6230317;23;20047;-88
2022/08/26 21:39:23;;;;;;;3.95;1.50;;;20.90;82.00;;;;;;6255093;22;20000;-88
2022/08/26 21:41:49;;;;;;;4.28;1.40;;;20.90;82.10;;;;;;6280880;22;20000;-92
2022/08/26 21:44:29;;;;;;;3.40;1.58;;;20.90;81.60;;;;;;6299162;22;19984;-89
2022/08/26 21:47:03;;;;;;;3.25;1.40;;;20.90;81.60;;;;;;6276672;22;20004;-90
2022/08/26 21:49:32;;;;;;;2.42;1.40;;;20.90;81.40;;;;;;6275199;22;20015;-87
2022/08/26 21:52:03;;;;;;;2.22;1.27;;;20.90;81.30;;;;;;6300271;22;20028;-91
2022/08/26 21:54:32;;;;;;;3.50;1.60;;;20.80;81.10;;;;;;6299254;22;19988;-87
2022/08/26 21:57:11;;;;;;;3.55;1.42;;;20.80;81.10;;;;;;6254821;22;20010;-89
2022/08/26 21:59:49;;;;;;;3.22;1.30;;;20.80;81.10;;;;;;6278961;22;20004;-88
2022/08/26 22:02:15;;;;;;;4.40;1.52;;;20.80;81.00;;;;;;6253306;23;20007;-88
2022/08/26 22:04:50;;;;;;;;;;;;;;;;;;;;;
2022/08/26 22:07:31;;;;;;;5.68;1.58;;;20.80;80.70;;;;;;6254425;23;20032;-87
2022/08/26 22:10:04;;;;;;;3.38;1.45;;;20.80;80.60;;;;;;6277059;22;20024;-86
2022/08/26 22:12:46;;;;;;;;;;;;;;;;;;;;;
2022/08/26 22:15:14;;;;;;;4.15;1.67;;;20.70;80.80;;;;;;6254743;23;20028;-87
2022/08/26 22:18:02;;;;;;;2.28;1.17;;;20.70;80.90;;;;;;6276226;22;20012;-88